sensor_id;sensor_type;location;lat;lon;timestamp;P1;durP1;ratioP1;P2;durP2;ratioP2
1400;SDS011;46518;48.842;8.926;2024-03-29T00:01:26;3.72;;;1.15;;
1400;SDS011;46518;48.842;8.926;2024-03-29T00:03:52;3.63;;;1.42;;
1400;SDS011;46518;48.842;8.926;2024-03-29T00:06:18;1.35;;;0.90;;
1400;SDS011;46518;48.842;8.926;2024-03-29T00:08:45;1.50;;;0.90;;
1400;SDS011;46518;48.842;8.926;2024-03-29T00:11:11;3.53;;;1.30;;
1400;SDS011;46518;48.842;8.926;2024-03-29T00:13:39;2.13;;;1.10;;
1400;SDS011;46518;48.842;8.926;2024-03-29T00:16:05;3.85;;;1.35;;
1400;SDS011;46518;48.842;8.926;2024-03-29T00:18:32;2.08;;;1.40;;
1400;SDS011;46518;48.842;8.926;2024-03-29T00:20:58;1.73;;;1.00;;
1400;SDS011;46518;48.842;8.926;2024-03-29T00:23:24;3.72;;;1.20;;
1400;SDS011;46518;48.842;8.926;2024-03-29T00:25:50;2.30;;;0.90;;
1400;SDS011;46518;48.842;8.926;2024-03-29T00:28:17;1.15;;;0.90;;
1400;SDS011;46518;48.842;8.926;2024-03-29T00:30:44;0.88;;;0.88;;
1400;SDS011;46518;48.842;8.926;2024-03-29T00:33:10;7.72;;;1.40;;
1400;SDS011;46518;48.842;8.926;2024-03-29T00:35:37;1.50;;;1.20;;
1400;SDS011;46518;48.842;8.926;2024-03-29T00:38:03;1.35;;;0.85;;
1400;SDS011;46518;48.842;8.926;2024-03-29T00:40:29;1.58;;;1.00;;
1400;SDS011;46518;48.842;8.926;2024-03-29T00:42:56;2.47;;;1.25;;
1400;SDS011;46518;48.842;8.926;2024-03-29T00:45:23;1.55;;;0.95;;
1400;SDS011;46518;48.842;8.926;2024-03-29T00:47:51;1.63;;;0.85;;
1400;SDS011;46518;48.842;8.926;2024-03-29T00:50:17;0.93;;;0.80;;
1400;SDS011;46518;48.842;8.926;2024-03-29T00:52:43;1.95;;;1.00;;
1400;SDS011;46518;48.842;8.926;2024-03-29T00:55:09;2.50;;;1.60;;
1400;SDS011;46518;48.842;8.926;2024-03-29T00:57:36;1.90;;;1.30;;
1400;SDS011;46518;48.842;8.926;2024-03-29T01:00:02;2.03;;;1.02;;
1400;SDS011;46518;48.842;8.926;2024-03-29T01:02:29;2.10;;;1.10;;
1400;SDS011;46518;48.842;8.926;2024-03-29T01:04:57;1.30;;;0.98;;
1400;SDS011;46518;48.842;8.926;2024-03-29T01:07:23;1.20;;;0.85;;
1400;SDS011;46518;48.842;8.926;2024-03-29T01:09:49;3.28;;;1.00;;
1400;SDS011;46518;48.842;8.926;2024-03-29T01:12:15;1.60;;;0.90;;
1400;SDS011;46518;48.842;8.926;2024-03-29T01:14:42;5.63;;;1.20;;
1400;SDS011;46518;48.842;8.926;2024-03-29T01:17:08;2.90;;;1.42;;
1400;SDS011;46518;48.842;8.926;2024-03-29T01:19:34;1.23;;;0.80;;
1400;SDS011;46518;48.842;8.926;2024-03-29T01:22:02;2.63;;;0.90;;
1400;SDS011;46518;48.842;8.926;2024-03-29T01:24:28;4.28;;;2.35;;
1400;SDS011;46518;48.842;8.926;2024-03-29T01:26:54;3.15;;;1.20;;
1400;SDS011;46518;48.842;8.926;2024-03-29T01:29:20;3.03;;;1.15;;
1400;SDS011;46518;48.842;8.926;2024-03-29T01:31:46;1.25;;;1.15;;
1400;SDS011;46518;48.842;8.926;2024-03-29T01:34:12;1.60;;;1.45;;
1400;SDS011;46518;48.842;8.926;2024-03-29T01:36:39;3.92;;;1.30;;
1400;SDS011;46518;48.842;8.926;2024-03-29T01:39:06;1.30;;;1.00;;
1400;SDS011;46518;48.842;8.926;2024-03-29T01:41:33;0.93;;;0.93;;
1400;SDS011;46518;48.842;8.926;2024-03-29T01:43:59;1.58;;;1.10;;
1400;SDS011;46518;48.842;8.926;2024-03-29T01:46:26;2.15;;;1.25;;
1400;SDS011;46518;48.842;8.926;2024-03-29T01:48:53;1.80;;;1.30;;
1400;SDS011;46518;48.842;8.926;2024-03-29T01:51:21;2.03;;;1.75;;
1400;SDS011;46518;48.842;8.926;2024-03-29T01:53:48;1.40;;;1.05;;
1400;SDS011;46518;48.842;8.926;2024-03-29T01:56:18;1.75;;;1.45;;
1400;SDS011;46518;48.842;8.926;2024-03-29T01:58:47;1.23;;;0.70;;
1400;SDS011;46518;48.842;8.926;2024-03-29T02:01:17;3.83;;;1.00;;
1400;SDS011;46518;48.842;8.926;2024-03-29T02:03:45;1.13;;;1.00;;
1400;SDS011;46518;48.842;8.926;2024-03-29T02:06:14;1.15;;;1.05;;
1400;SDS011;46518;48.842;8.926;2024-03-29T02:08:41;4.22;;;1.45;;
1400;SDS011;46518;48.842;8.926;2024-03-29T02:11:09;1.00;;;0.95;;
1400;SDS011;46518;48.842;8.926;2024-03-29T02:13:37;1.67;;;1.00;;
1400;SDS011;46518;48.842;8.926;2024-03-29T02:16:05;0.90;;;0.90;;
1400;SDS011;46518;48.842;8.926;2024-03-29T02:18:33;3.15;;;1.00;;
1400;SDS011;46518;48.842;8.926;2024-03-29T02:21:00;2.42;;;1.17;;
1400;SDS011;46518;48.842;8.926;2024-03-29T02:23:27;1.15;;;0.95;;
1400;SDS011;46518;48.842;8.926;2024-03-29T02:26:00;2.00;;;1.10;;
1400;SDS011;46518;48.842;8.926;2024-03-29T02:28:27;2.45;;;1.30;;
1400;SDS011;46518;48.842;8.926;2024-03-29T02:30:55;1.58;;;1.00;;
1400;SDS011;46518;48.842;8.926;2024-03-29T02:33:22;0.93;;;0.70;;
1400;SDS011;46518;48.842;8.926;2024-03-29T02:35:49;0.80;;;0.80;;
1400;SDS011;46518;48.842;8.926;2024-03-29T02:38:16;2.28;;;1.25;;
1400;SDS011;46518;48.842;8.926;2024-03-29T02:40:44;2.85;;;0.80;;
1400;SDS011;46518;48.842;8.926;2024-03-29T02:43:12;1.35;;;0.82;;
1400;SDS011;46518;48.842;8.926;2024-03-29T02:45:38;1.35;;;1.00;;
1400;SDS011;46518;48.842;8.926;2024-03-29T02:48:06;2.42;;;1.00;;
1400;SDS011;46518;48.842;8.926;2024-03-29T02:50:33;1.35;;;0.85;;
1400;SDS011;46518;48.842;8.926;2024-03-29T02:52:59;0.95;;;0.63;;
1400;SDS011;46518;48.842;8.926;2024-03-29T02:55:27;1.15;;;0.90;;
1400;SDS011;46518;48.842;8.926;2024-03-29T02:57:53;2.15;;;1.45;;
1400;SDS011;46518;48.842;8.926;2024-03-29T03:00:21;2.17;;;1.20;;
1400;SDS011;46518;48.842;8.926;2024-03-29T03:02:47;2.03;;;1.50;;
1400;SDS011;46518;48.842;8.926;2024-03-29T03:05:15;1.27;;;1.10;;
1400;SDS011;46518;48.842;8.926;2024-03-29T03:07:41;1.42;;;1.00;;
1400;SDS011;46518;48.842;8.926;2024-03-29T03:10:25;1.85;;;1.20;;
1400;SDS011;46518;48.842;8.926;2024-03-29T03:13:10;2.03;;;1.30;;
1400;SDS011;46518;48.842;8.926;2024-03-29T03:15:39;1.77;;;1.15;;
1400;SDS011;46518;48.842;8.926;2024-03-29T03:18:06;3.67;;;1.98;;
1400;SDS011;46518;48.842;8.926;2024-03-29T03:20:32;2.50;;;1.35;;
1400;SDS011;46518;48.842;8.926;2024-03-29T03:23:00;2.17;;;1.10;;
1400;SDS011;46518;48.842;8.926;2024-03-29T03:25:26;1.83;;;1.73;;
1400;SDS011;46518;48.842;8.926;2024-03-29T03:27:54;1.63;;;1.40;;
1400;SDS011;46518;48.842;8.926;2024-03-29T03:30:20;5.80;;;1.40;;
1400;SDS011;46518;48.842;8.926;2024-03-29T03:32:49;2.17;;;1.33;;
1400;SDS011;46518;48.842;8.926;2024-03-29T03:35:15;1.55;;;1.08;;
1400;SDS011;46518;48.842;8.926;2024-03-29T03:37:42;1.38;;;1.27;;
1400;SDS011;46518;48.842;8.926;2024-03-29T03:40:08;2.33;;;1.10;;
1400;SDS011;46518;48.842;8.926;2024-03-29T03:42:36;1.38;;;1.27;;
1400;SDS011;46518;48.842;8.926;2024-03-29T03:45:02;5.18;;;1.42;;
1400;SDS011;46518;48.842;8.926;2024-03-29T03:47:30;2.17;;;1.50;;
1400;SDS011;46518;48.842;8.926;2024-03-29T03:49:57;2.08;;;1.38;;
1400;SDS011;46518;48.842;8.926;2024-03-29T03:52:24;2.67;;;1.15;;
1400;SDS011;46518;48.842;8.926;2024-03-29T03:54:51;2.78;;;1.58;;
1400;SDS011;46518;48.842;8.926;2024-03-29T03:57:18;1.52;;;1.42;;
1400;SDS011;46518;48.842;8.926;2024-03-29T03:59:44;1.50;;;1.40;;
1400;SDS011;46518;48.842;8.926;2024-03-29T04:02:11;1.50;;;1.30;;
1400;SDS011;46518;48.842;8.926;2024-03-29T04:04:37;1.98;;;0.90;;
1400;SDS011;46518;48.842;8.926;2024-03-29T04:07:05;1.67;;;1.15;;
1400;SDS011;46518;48.842;8.926;2024-03-29T04:09:32;3.30;;;1.10;;
1400;SDS011;46518;48.842;8.926;2024-03-29T04:11:59;3.67;;;1.10;;
1400;SDS011;46518;48.842;8.926;2024-03-29T04:14:25;2.13;;;1.50;;
1400;SDS011;46518;48.842;8.926;2024-03-29T04:16:52;1.10;;;1.00;;
1400;SDS011;46518;48.842;8.926;2024-03-29T04:19:18;1.23;;;1.02;;
1400;SDS011;46518;48.842;8.926;2024-03-29T04:21:45;1.35;;;1.25;;
1400;SDS011;46518;48.842;8.926;2024-03-29T04:24:13;2.35;;;1.27;;
1400;SDS011;46518;48.842;8.926;2024-03-29T04:26:40;1.40;;;1.30;;
1400;SDS011;46518;48.842;8.926;2024-03-29T04:29:06;1.15;;;1.05;;
1400;SDS011;46518;48.842;8.926;2024-03-29T04:31:33;1.30;;;1.20;;
1400;SDS011;46518;48.842;8.926;2024-03-29T04:33:59;2.35;;;1.20;;
1400;SDS011;46518;48.842;8.926;2024-03-29T04:36:26;1.27;;;1.17;;
1400;SDS011;46518;48.842;8.926;2024-03-29T04:38:52;1.77;;;1.20;;
1400;SDS011;46518;48.842;8.926;2024-03-29T04:41:22;2.63;;;1.60;;
1400;SDS011;46518;48.842;8.926;2024-03-29T04:43:50;2.20;;;1.50;;
1400;SDS011;46518;48.842;8.926;2024-03-29T04:46:17;2.05;;;1.35;;
1400;SDS011;46518;48.842;8.926;2024-03-29T04:48:44;2.22;;;1.83;;
1400;SDS011;46518;48.842;8.926;2024-03-29T04:51:12;1.60;;;0.85;;
1400;SDS011;46518;48.842;8.926;2024-03-29T04:53:39;1.42;;;1.30;;
1400;SDS011;46518;48.842;8.926;2024-03-29T04:56:06;1.20;;;1.10;;
1400;SDS011;46518;48.842;8.926;2024-03-29T04:58:35;1.75;;;1.02;;
1400;SDS011;46518;48.842;8.926;2024-03-29T05:01:02;1.13;;;1.00;;
1400;SDS011;46518;48.842;8.926;2024-03-29T05:03:30;2.95;;;1.20;;
1400;SDS011;46518;48.842;8.926;2024-03-29T05:05:57;1.10;;;0.75;;
1400;SDS011;46518;48.842;8.926;2024-03-29T05:08:24;1.90;;;1.00;;
1400;SDS011;46518;48.842;8.926;2024-03-29T05:10:51;1.10;;;1.00;;
1400;SDS011;46518;48.842;8.926;2024-03-29T05:13:19;1.45;;;0.90;;
1400;SDS011;46518;48.842;8.926;2024-03-29T05:15:47;0.90;;;0.70;;
1400;SDS011;46518;48.842;8.926;2024-03-29T05:18:15;0.95;;;0.85;;
1400;SDS011;46518;48.842;8.926;2024-03-29T05:20:42;2.17;;;0.88;;
1400;SDS011;46518;48.842;8.926;2024-03-29T05:23:12;1.10;;;1.00;;
1400;SDS011;46518;48.842;8.926;2024-03-29T05:25:40;2.35;;;1.02;;
1400;SDS011;46518;48.842;8.926;2024-03-29T05:28:08;1.23;;;1.08;;
1400;SDS011;46518;48.842;8.926;2024-03-29T05:30:36;1.73;;;1.00;;
1400;SDS011;46518;48.842;8.926;2024-03-29T05:33:04;2.30;;;1.20;;
1400;SDS011;46518;48.842;8.926;2024-03-29T05:35:33;1.50;;;1.40;;
1400;SDS011;46518;48.842;8.926;2024-03-29T05:38:00;0.85;;;0.85;;
1400;SDS011;46518;48.842;8.926;2024-03-29T05:40:28;1.90;;;1.25;;
1400;SDS011;46518;48.842;8.926;2024-03-29T05:42:55;1.02;;;0.90;;
1400;SDS011;46518;48.842;8.926;2024-03-29T05:45:23;1.63;;;1.40;;
1400;SDS011;46518;48.842;8.926;2024-03-29T05:47:53;1.30;;;0.90;;
1400;SDS011;46518;48.842;8.926;2024-03-29T05:50:22;1.67;;;1.15;;
1400;SDS011;46518;48.842;8.926;2024-03-29T05:52:50;2.80;;;0.90;;
1400;SDS011;46518;48.842;8.926;2024-03-29T05:55:17;2.60;;;1.35;;
1400;SDS011;46518;48.842;8.926;2024-03-29T05:57:44;1.33;;;1.00;;
1400;SDS011;46518;48.842;8.926;2024-03-29T06:00:12;2.47;;;1.25;;
1400;SDS011;46518;48.842;8.926;2024-03-29T06:02:43;2.97;;;1.38;;
1400;SDS011;46518;48.842;8.926;2024-03-29T06:05:11;1.23;;;1.10;;
1400;SDS011;46518;48.842;8.926;2024-03-29T06:07:40;2.00;;;1.23;;
1400;SDS011;46518;48.842;8.926;2024-03-29T06:10:07;1.20;;;1.10;;
1400;SDS011;46518;48.842;8.926;2024-03-29T06:12:36;2.72;;;1.65;;
1400;SDS011;46518;48.842;8.926;2024-03-29T06:15:04;1.40;;;1.10;;
1400;SDS011;46518;48.842;8.926;2024-03-29T06:17:50;2.03;;;1.45;;
1400;SDS011;46518;48.842;8.926;2024-03-29T06:20:17;1.98;;;1.38;;
1400;SDS011;46518;48.842;8.926;2024-03-29T06:22:45;1.80;;;1.40;;
1400;SDS011;46518;48.842;8.926;2024-03-29T06:25:12;1.60;;;1.10;;
1400;SDS011;46518;48.842;8.926;2024-03-29T06:27:42;4.25;;;1.30;;
1400;SDS011;46518;48.842;8.926;2024-03-29T06:30:13;2.65;;;1.25;;
1400;SDS011;46518;48.842;8.926;2024-03-29T06:32:41;1.40;;;1.20;;
1400;SDS011;46518;48.842;8.926;2024-03-29T06:35:08;1.80;;;1.23;;
1400;SDS011;46518;48.842;8.926;2024-03-29T06:37:36;1.10;;;0.90;;
1400;SDS011;46518;48.842;8.926;2024-03-29T06:40:05;2.40;;;1.40;;
1400;SDS011;46518;48.842;8.926;2024-03-29T06:42:33;1.40;;;1.30;;
1400;SDS011;46518;48.842;8.926;2024-03-29T06:45:01;1.02;;;0.90;;
1400;SDS011;46518;48.842;8.926;2024-03-29T06:47:29;1.55;;;1.20;;
1400;SDS011;46518;48.842;8.926;2024-03-29T06:49:57;1.20;;;1.10;;
1400;SDS011;46518;48.842;8.926;2024-03-29T06:52:24;1.77;;;0.90;;
1400;SDS011;46518;48.842;8.926;2024-03-29T06:54:51;2.17;;;1.08;;
1400;SDS011;46518;48.842;8.926;2024-03-29T06:57:20;1.48;;;1.10;;
1400;SDS011;46518;48.842;8.926;2024-03-29T06:59:51;1.48;;;0.90;;
1400;SDS011;46518;48.842;8.926;2024-03-29T07:02:18;1.25;;;0.93;;
1400;SDS011;46518;48.842;8.926;2024-03-29T07:04:45;1.13;;;0.90;;
1400;SDS011;46518;48.842;8.926;2024-03-29T07:07:12;1.55;;;1.45;;
1400;SDS011;46518;48.842;8.926;2024-03-29T07:09:39;1.05;;;0.80;;
1400;SDS011;46518;48.842;8.926;2024-03-29T07:12:06;1.35;;;1.08;;
1400;SDS011;46518;48.842;8.926;2024-03-29T07:14:36;1.35;;;0.93;;
1400;SDS011;46518;48.842;8.926;2024-03-29T07:17:03;1.10;;;1.00;;
1400;SDS011;46518;48.842;8.926;2024-03-29T07:19:30;1.23;;;0.90;;
1400;SDS011;46518;48.842;8.926;2024-03-29T07:21:57;0.98;;;0.93;;
1400;SDS011;46518;48.842;8.926;2024-03-29T07:24:24;1.70;;;1.50;;
1400;SDS011;46518;48.842;8.926;2024-03-29T07:26:52;1.25;;;1.00;;
1400;SDS011;46518;48.842;8.926;2024-03-29T07:29:20;1.52;;;1.00;;
1400;SDS011;46518;48.842;8.926;2024-03-29T07:31:48;1.80;;;0.88;;
1400;SDS011;46518;48.842;8.926;2024-03-29T07:34:15;1.42;;;1.33;;
1400;SDS011;46518;48.842;8.926;2024-03-29T07:36:43;7.28;;;1.70;;
1400;SDS011;46518;48.842;8.926;2024-03-29T07:39:10;1.20;;;1.10;;
1400;SDS011;46518;48.842;8.926;2024-03-29T07:41:37;1.90;;;1.50;;
1400;SDS011;46518;48.842;8.926;2024-03-29T07:44:04;2.30;;;1.40;;
1400;SDS011;46518;48.842;8.926;2024-03-29T07:46:34;1.50;;;1.40;;
1400;SDS011;46518;48.842;8.926;2024-03-29T07:49:04;2.35;;;1.23;;
1400;SDS011;46518;48.842;8.926;2024-03-29T07:51:31;1.52;;;1.42;;
1400;SDS011;46518;48.842;8.926;2024-03-29T07:53:58;2.15;;;1.20;;
1400;SDS011;46518;48.842;8.926;2024-03-29T07:56:25;1.45;;;1.05;;
1400;SDS011;46518;48.842;8.926;2024-03-29T07:58:53;1.65;;;1.38;;
1400;SDS011;46518;48.842;8.926;2024-03-29T08:01:21;1.42;;;1.00;;
1400;SDS011;46518;48.842;8.926;2024-03-29T08:03:50;2.72;;;1.23;;
1400;SDS011;46518;48.842;8.926;2024-03-29T08:06:21;1.40;;;1.20;;
1400;SDS011;46518;48.842;8.926;2024-03-29T08:08:50;1.40;;;1.20;;
1400;SDS011;46518;48.842;8.926;2024-03-29T08:11:19;2.33;;;1.60;;
1400;SDS011;46518;48.842;8.926;2024-03-29T08:13:46;3.08;;;1.73;;
1400;SDS011;46518;48.842;8.926;2024-03-29T08:16:13;1.90;;;1.80;;
1400;SDS011;46518;48.842;8.926;2024-03-29T08:18:42;4.25;;;2.00;;
1400;SDS011;46518;48.842;8.926;2024-03-29T08:21:09;1.30;;;1.20;;
1400;SDS011;46518;48.842;8.926;2024-03-29T08:23:40;1.30;;;1.20;;
1400;SDS011;46518;48.842;8.926;2024-03-29T08:26:07;1.27;;;1.17;;
1400;SDS011;46518;48.842;8.926;2024-03-29T08:28:34;2.00;;;1.80;;
1400;SDS011;46518;48.842;8.926;2024-03-29T08:31:04;2.47;;;1.60;;
1400;SDS011;46518;48.842;8.926;2024-03-29T08:33:32;1.83;;;1.58;;
1400;SDS011;46518;48.842;8.926;2024-03-29T08:36:00;3.33;;;1.73;;
1400;SDS011;46518;48.842;8.926;2024-03-29T08:38:27;1.50;;;1.40;;
1400;SDS011;46518;48.842;8.926;2024-03-29T08:40:54;1.55;;;1.45;;
1400;SDS011;46518;48.842;8.926;2024-03-29T08:43:22;3.50;;;2.03;;
1400;SDS011;46518;48.842;8.926;2024-03-29T08:45:49;1.65;;;1.40;;
1400;SDS011;46518;48.842;8.926;2024-03-29T08:48:16;1.45;;;1.25;;
1400;SDS011;46518;48.842;8.926;2024-03-29T08:50:43;2.08;;;1.83;;
1400;SDS011;46518;48.842;8.926;2024-03-29T08:53:11;2.20;;;2.00;;
1400;SDS011;46518;48.842;8.926;2024-03-29T08:55:39;3.28;;;2.25;;
1400;SDS011;46518;48.842;8.926;2024-03-29T08:58:07;2.72;;;2.53;;
1400;SDS011;46518;48.842;8.926;2024-03-29T09:00:34;2.83;;;2.25;;
1400;SDS011;46518;48.842;8.926;2024-03-29T09:03:01;6.85;;;2.20;;
1400;SDS011;46518;48.842;8.926;2024-03-29T09:05:28;3.40;;;2.63;;
1400;SDS011;46518;48.842;8.926;2024-03-29T09:07:55;4.32;;;3.33;;
1400;SDS011;46518;48.842;8.926;2024-03-29T09:10:23;2.63;;;2.22;;
1400;SDS011;46518;48.842;8.926;2024-03-29T09:12:52;3.67;;;2.00;;
1400;SDS011;46518;48.842;8.926;2024-03-29T09:15:21;3.05;;;2.10;;
1400;SDS011;46518;48.842;8.926;2024-03-29T09:17:50;2.60;;;2.40;;
1400;SDS011;46518;48.842;8.926;2024-03-29T09:20:20;2.33;;;2.20;;
1400;SDS011;46518;48.842;8.926;2024-03-29T09:22:50;2.10;;;1.90;;
1400;SDS011;46518;48.842;8.926;2024-03-29T09:25:17;2.55;;;2.05;;
1400;SDS011;46518;48.842;8.926;2024-03-29T09:27:45;3.20;;;2.40;;
1400;SDS011;46518;48.842;8.926;2024-03-29T09:30:14;3.47;;;1.85;;
1400;SDS011;46518;48.842;8.926;2024-03-29T09:32:43;9.05;;;4.43;;
1400;SDS011;46518;48.842;8.926;2024-03-29T09:35:10;1.80;;;1.60;;
1400;SDS011;46518;48.842;8.926;2024-03-29T09:37:37;1.92;;;1.70;;
1400;SDS011;46518;48.842;8.926;2024-03-29T09:40:06;3.55;;;2.15;;
1400;SDS011;46518;48.842;8.926;2024-03-29T09:42:34;1.95;;;1.65;;
1400;SDS011;46518;48.842;8.926;2024-03-29T09:45:05;4.50;;;2.35;;
1400;SDS011;46518;48.842;8.926;2024-03-29T09:47:34;3.30;;;2.50;;
1400;SDS011;46518;48.842;8.926;2024-03-29T09:50:04;3.20;;;2.55;;
1400;SDS011;46518;48.842;8.926;2024-03-29T09:52:34;3.10;;;2.63;;
1400;SDS011;46518;48.842;8.926;2024-03-29T09:55:02;3.03;;;2.63;;
1400;SDS011;46518;48.842;8.926;2024-03-29T09:57:30;2.88;;;2.13;;
1400;SDS011;46518;48.842;8.926;2024-03-29T09:59:58;4.18;;;3.60;;
1400;SDS011;46518;48.842;8.926;2024-03-29T10:02:25;4.50;;;3.85;;
1400;SDS011;46518;48.842;8.926;2024-03-29T10:04:55;4.85;;;4.07;;
1400;SDS011;46518;48.842;8.926;2024-03-29T10:07:25;4.05;;;3.65;;
1400;SDS011;46518;48.842;8.926;2024-03-29T10:09:55;3.40;;;3.10;;
1400;SDS011;46518;48.842;8.926;2024-03-29T10:12:24;3.38;;;2.58;;
1400;SDS011;46518;48.842;8.926;2024-03-29T10:14:51;4.47;;;3.25;;
1400;SDS011;46518;48.842;8.926;2024-03-29T10:17:20;3.00;;;2.70;;
1400;SDS011;46518;48.842;8.926;2024-03-29T10:19:48;2.78;;;2.58;;
1400;SDS011;46518;48.842;8.926;2024-03-29T10:22:15;4.30;;;2.65;;
1400;SDS011;46518;48.842;8.926;2024-03-29T10:24:44;4.28;;;3.22;;
1400;SDS011;46518;48.842;8.926;2024-03-29T10:27:11;4.40;;;3.00;;
1400;SDS011;46518;48.842;8.926;2024-03-29T10:32:58;3.08;;;2.53;;
1400;SDS011;46518;48.842;8.926;2024-03-29T10:35:25;5.05;;;2.70;;
1400;SDS011;46518;48.842;8.926;2024-03-29T10:37:52;2.95;;;2.40;;
1400;SDS011;46518;48.842;8.926;2024-03-29T10:40:21;2.45;;;2.25;;
1400;SDS011;46518;48.842;8.926;2024-03-29T10:42:51;1.65;;;1.55;;
1400;SDS011;46518;48.842;8.926;2024-03-29T10:45:19;3.17;;;1.88;;
1400;SDS011;46518;48.842;8.926;2024-03-29T10:47:49;2.08;;;1.52;;
1400;SDS011;46518;48.842;8.926;2024-03-29T10:50:19;2.47;;;1.70;;
1400;SDS011;46518;48.842;8.926;2024-03-29T10:52:49;5.00;;;2.85;;
1400;SDS011;46518;48.842;8.926;2024-03-29T10:55:17;2.45;;;2.25;;
1400;SDS011;46518;48.842;8.926;2024-03-29T10:57:46;3.50;;;3.20;;
1400;SDS011;46518;48.842;8.926;2024-03-29T11:00:20;2.05;;;1.75;;
1400;SDS011;46518;48.842;8.926;2024-03-29T11:02:49;2.65;;;2.10;;
1400;SDS011;46518;48.842;8.926;2024-03-29T11:05:18;2.55;;;1.80;;
1400;SDS011;46518;48.842;8.926;2024-03-29T11:07:46;1.90;;;1.80;;
1400;SDS011;46518;48.842;8.926;2024-03-29T11:10:15;1.90;;;1.70;;
1400;SDS011;46518;48.842;8.926;2024-03-29T11:12:53;2.03;;;1.55;;
1400;SDS011;46518;48.842;8.926;2024-03-29T11:15:28;4.07;;;1.95;;
1400;SDS011;46518;48.842;8.926;2024-03-29T11:17:56;7.43;;;3.10;;
1400;SDS011;46518;48.842;8.926;2024-03-29T11:20:24;2.15;;;1.60;;
1400;SDS011;46518;48.842;8.926;2024-03-29T11:23:03;3.15;;;2.00;;
1400;SDS011;46518;48.842;8.926;2024-03-29T11:25:41;2.10;;;1.90;;
1400;SDS011;46518;48.842;8.926;2024-03-29T11:28:11;1.80;;;1.70;;
1400;SDS011;46518;48.842;8.926;2024-03-29T11:30:41;2.88;;;1.55;;
1400;SDS011;46518;48.842;8.926;2024-03-29T11:33:29;1.60;;;1.50;;
1400;SDS011;46518;48.842;8.926;2024-03-29T11:35:57;1.80;;;1.70;;
1400;SDS011;46518;48.842;8.926;2024-03-29T11:38:31;2.53;;;2.00;;
1400;SDS011;46518;48.842;8.926;2024-03-29T11:41:01;1.60;;;1.50;;
1400;SDS011;46518;48.842;8.926;2024-03-29T11:43:31;1.85;;;1.67;;
1400;SDS011;46518;48.842;8.926;2024-03-29T11:45:59;2.10;;;1.83;;
1400;SDS011;46518;48.842;8.926;2024-03-29T11:48:28;2.08;;;1.88;;
1400;SDS011;46518;48.842;8.926;2024-03-29T11:50:56;2.30;;;1.80;;
1400;SDS011;46518;48.842;8.926;2024-03-29T11:53:24;2.05;;;1.95;;
1400;SDS011;46518;48.842;8.926;2024-03-29T11:55:53;1.50;;;1.40;;
1400;SDS011;46518;48.842;8.926;2024-03-29T11:58:21;2.20;;;1.77;;
1400;SDS011;46518;48.842;8.926;2024-03-29T12:00:50;2.30;;;2.10;;
1400;SDS011;46518;48.842;8.926;2024-03-29T12:03:18;2.83;;;2.15;;
1400;SDS011;46518;48.842;8.926;2024-03-29T12:05:47;4.55;;;2.00;;
1400;SDS011;46518;48.842;8.926;2024-03-29T12:08:17;4.15;;;3.15;;
1400;SDS011;46518;48.842;8.926;2024-03-29T12:10:45;3.10;;;2.88;;
1400;SDS011;46518;48.842;8.926;2024-03-29T12:13:15;3.40;;;3.10;;
1400;SDS011;46518;48.842;8.926;2024-03-29T12:15:43;2.90;;;2.70;;
1400;SDS011;46518;48.842;8.926;2024-03-29T12:18:12;2.83;;;2.63;;
1400;SDS011;46518;48.842;8.926;2024-03-29T12:20:42;2.60;;;2.40;;
1400;SDS011;46518;48.842;8.926;2024-03-29T12:23:12;4.75;;;2.65;;
1400;SDS011;46518;48.842;8.926;2024-03-29T12:25:40;2.20;;;2.10;;
1400;SDS011;46518;48.842;8.926;2024-03-29T12:28:08;2.45;;;2.10;;
1400;SDS011;46518;48.842;8.926;2024-03-29T12:30:40;3.35;;;2.25;;
1400;SDS011;46518;48.842;8.926;2024-03-29T12:33:10;2.78;;;1.90;;
1400;SDS011;46518;48.842;8.926;2024-03-29T12:35:41;4.65;;;3.10;;
1400;SDS011;46518;48.842;8.926;2024-03-29T12:38:10;4.55;;;2.70;;
1400;SDS011;46518;48.842;8.926;2024-03-29T12:40:38;3.88;;;3.50;;
1400;SDS011;46518;48.842;8.926;2024-03-29T12:48:12;3.38;;;2.30;;
1400;SDS011;46518;48.842;8.926;2024-03-29T12:50:42;2.55;;;2.35;;
1400;SDS011;46518;48.842;8.926;2024-03-29T12:53:11;3.20;;;2.90;;
1400;SDS011;46518;48.842;8.926;2024-03-29T12:55:39;3.03;;;2.70;;
1400;SDS011;46518;48.842;8.926;2024-03-29T12:58:10;2.88;;;2.60;;
1400;SDS011;46518;48.842;8.926;2024-03-29T13:00:37;3.08;;;2.50;;
1400;SDS011;46518;48.842;8.926;2024-03-29T13:03:05;2.40;;;2.20;;
1400;SDS011;46518;48.842;8.926;2024-03-29T13:05:34;2.67;;;2.47;;
1400;SDS011;46518;48.842;8.926;2024-03-29T13:08:06;4.05;;;3.30;;
1400;SDS011;46518;48.842;8.926;2024-03-29T13:10:36;5.15;;;3.72;;
1400;SDS011;46518;48.842;8.926;2024-03-29T13:13:03;3.15;;;2.90;;
1400;SDS011;46518;48.842;8.926;2024-03-29T13:15:32;3.25;;;2.97;;
1400;SDS011;46518;48.842;8.926;2024-03-29T13:18:00;4.88;;;2.55;;
1400;SDS011;46518;48.842;8.926;2024-03-29T13:20:27;3.47;;;2.95;;
1400;SDS011;46518;48.842;8.926;2024-03-29T13:22:55;4.00;;;2.97;;
1400;SDS011;46518;48.842;8.926;2024-03-29T13:25:23;3.15;;;2.95;;
1400;SDS011;46518;48.842;8.926;2024-03-29T13:27:51;4.03;;;2.90;;
1400;SDS011;46518;48.842;8.926;2024-03-29T13:30:21;2.75;;;2.35;;
1400;SDS011;46518;48.842;8.926;2024-03-29T13:32:48;2.88;;;2.67;;
1400;SDS011;46518;48.842;8.926;2024-03-29T13:35:15;2.97;;;2.15;;
1400;SDS011;46518;48.842;8.926;2024-03-29T13:37:47;2.20;;;1.70;;
1400;SDS011;46518;48.842;8.926;2024-03-29T13:40:18;3.92;;;2.35;;
1400;SDS011;46518;48.842;8.926;2024-03-29T13:42:46;1.85;;;1.75;;
1400;SDS011;46518;48.842;8.926;2024-03-29T13:45:14;1.42;;;1.30;;
1400;SDS011;46518;48.842;8.926;2024-03-29T13:47:42;2.60;;;1.83;;
1400;SDS011;46518;48.842;8.926;2024-03-29T13:50:11;1.80;;;1.55;;
1400;SDS011;46518;48.842;8.926;2024-03-29T13:52:42;2.30;;;1.75;;
1400;SDS011;46518;48.842;8.926;2024-03-29T13:55:10;1.60;;;1.48;;
1400;SDS011;46518;48.842;8.926;2024-03-29T13:57:40;1.70;;;1.60;;
1400;SDS011;46518;48.842;8.926;2024-03-29T14:00:09;2.30;;;1.52;;
1400;SDS011;46518;48.842;8.926;2024-03-29T14:02:40;1.80;;;1.70;;
1400;SDS011;46518;48.842;8.926;2024-03-29T14:05:07;1.63;;;1.52;;
1400;SDS011;46518;48.842;8.926;2024-03-29T14:07:34;3.03;;;1.50;;
1400;SDS011;46518;48.842;8.926;2024-03-29T14:10:01;1.23;;;0.95;;
1400;SDS011;46518;48.842;8.926;2024-03-29T14:12:32;1.20;;;0.65;;
1400;SDS011;46518;48.842;8.926;2024-03-29T14:15:00;1.80;;;0.85;;
1400;SDS011;46518;48.842;8.926;2024-03-29T14:17:28;1.35;;;0.70;;
1400;SDS011;46518;48.842;8.926;2024-03-29T14:19:55;3.17;;;1.30;;
1400;SDS011;46518;48.842;8.926;2024-03-29T14:22:22;1.08;;;0.85;;
1400;SDS011;46518;48.842;8.926;2024-03-29T14:24:50;1.90;;;1.50;;
1400;SDS011;46518;48.842;8.926;2024-03-29T14:27:17;2.05;;;1.40;;
1400;SDS011;46518;48.842;8.926;2024-03-29T14:29:44;1.15;;;1.05;;
1400;SDS011;46518;48.842;8.926;2024-03-29T14:32:13;1.23;;;1.00;;
1400;SDS011;46518;48.842;8.926;2024-03-29T14:34:40;1.17;;;1.08;;
1400;SDS011;46518;48.842;8.926;2024-03-29T14:37:12;1.85;;;1.35;;
1400;SDS011;46518;48.842;8.926;2024-03-29T14:39:42;1.30;;;1.17;;
1400;SDS011;46518;48.842;8.926;2024-03-29T14:42:10;1.40;;;1.30;;
1400;SDS011;46518;48.842;8.926;2024-03-29T14:44:39;0.90;;;0.90;;
1400;SDS011;46518;48.842;8.926;2024-03-29T14:47:06;1.10;;;1.00;;
1400;SDS011;46518;48.842;8.926;2024-03-29T14:49:34;1.92;;;1.30;;
1400;SDS011;46518;48.842;8.926;2024-03-29T14:52:02;1.42;;;1.33;;
1400;SDS011;46518;48.842;8.926;2024-03-29T14:54:30;2.33;;;1.52;;
1400;SDS011;46518;48.842;8.926;2024-03-29T14:56:57;1.42;;;1.33;;
1400;SDS011;46518;48.842;8.926;2024-03-29T14:59:24;1.38;;;1.27;;
1400;SDS011;46518;48.842;8.926;2024-03-29T15:01:55;1.20;;;1.10;;
1400;SDS011;46518;48.842;8.926;2024-03-29T15:04:23;1.10;;;1.00;;
1400;SDS011;46518;48.842;8.926;2024-03-29T15:06:51;1.17;;;0.95;;
1400;SDS011;46518;48.842;8.926;2024-03-29T15:09:19;1.45;;;1.35;;
1400;SDS011;46518;48.842;8.926;2024-03-29T15:11:46;1.45;;;1.35;;
1400;SDS011;46518;48.842;8.926;2024-03-29T15:14:13;1.40;;;1.05;;